sensor_id;sensor_type;location;lat;lon;timestamp;temperature;humidity
20985;DHT22;10651;47.552;7.606;2024-01-30T06:57:36;3.50;99.90
20985;DHT22;10651;47.552;7.606;2024-01-30T07:00:05;3.50;99.90
20985;DHT22;10651;47.552;7.606;2024-01-30T07:15:46;3.50;99.90
20985;DHT22;10651;47.552;7.606;2024-01-30T07:18:18;3.60;99.90
20985;DHT22;10651;47.552;7.606;2024-01-30T07:20:47;3.60;99.90
20985;DHT22;10651;47.552;7.606;2024-01-30T07:23:16;3.60;99.90
20985;DHT22;10651;47.552;7.606;2024-01-30T07:25:46;3.60;99.90
20985;DHT22;10651;47.552;7.606;2024-01-30T07:28:15;3.60;99.90
20985;DHT22;10651;47.552;7.606;2024-01-30T07:30:43;3.60;99.90
20985;DHT22;10651;47.552;7.606;2024-01-30T07:33:11;3.50;99.90
20985;DHT22;10651;47.552;7.606;2024-01-30T07:35:37;3.60;99.90
20985;DHT22;10651;47.552;7.606;2024-01-30T07:38:03;3.60;99.90
20985;DHT22;10651;47.552;7.606;2024-01-30T07:40:29;3.60;99.90
20985;DHT22;10651;47.552;7.606;2024-01-30T07:42:58;3.70;99.90
20985;DHT22;10651;47.552;7.606;2024-01-30T07:45:24;3.70;99.90
20985;DHT22;10651;47.552;7.606;2024-01-30T07:47:55;3.80;99.90
20985;DHT22;10651;47.552;7.606;2024-01-30T07:50:30;3.80;99.90
20985;DHT22;10651;47.552;7.606;2024-01-30T07:53:00;3.90;99.90
20985;DHT22;10651;47.552;7.606;2024-01-30T07:55:28;4.00;99.90
20985;DHT22;10651;47.552;7.606;2024-01-30T07:58:00;4.10;99.90
20985;DHT22;10651;47.552;7.606;2024-01-30T08:00:26;4.20;99.90
20985;DHT22;10651;47.552;7.606;2024-01-30T08:02:55;4.30;99.90
20985;DHT22;10651;47.552;7.606;2024-01-30T08:05:21;4.40;99.90
20985;DHT22;10651;47.552;7.606;2024-01-30T08:07:51;4.50;99.90
20985;DHT22;10651;47.552;7.606;2024-01-30T08:10:17;4.60;99.90
20985;DHT22;10651;47.552;7.606;2024-01-30T08:12:45;4.80;99.90
20985;DHT22;10651;47.552;7.606;2024-01-30T08:15:11;4.90;99.90
20985;DHT22;10651;47.552;7.606;2024-01-30T08:17:42;5.10;99.90
20985;DHT22;10651;47.552;7.606;2024-01-30T08:20:10;5.10;99.90
20985;DHT22;10651;47.552;7.606;2024-01-30T08:22:40;5.10;99.90
20985;DHT22;10651;47.552;7.606;2024-01-30T08:25:07;5.00;99.90
20985;DHT22;10651;47.552;7.606;2024-01-30T08:27:36;4.90;99.90
20985;DHT22;10651;47.552;7.606;2024-01-30T08:30:05;5.10;99.90
20985;DHT22;10651;47.552;7.606;2024-01-30T08:32:31;4.90;99.90
20985;DHT22;10651;47.552;7.606;2024-01-30T08:34:58;4.80;99.90
20985;DHT22;10651;47.552;7.606;2024-01-30T08:37:26;4.80;99.90
20985;DHT22;10651;47.552;7.606;2024-01-30T08:39:51;4.80;99.90
20985;DHT22;10651;47.552;7.606;2024-01-30T08:42:20;4.80;99.90
20985;DHT22;10651;47.552;7.606;2024-01-30T08:44:53;4.80;99.90
20985;DHT22;10651;47.552;7.606;2024-01-30T08:47:21;4.70;99.90
20985;DHT22;10651;47.552;7.606;2024-01-30T08:49:47;4.70;99.90
20985;DHT22;10651;47.552;7.606;2024-01-30T08:52:16;4.70;99.90
20985;DHT22;10651;47.552;7.606;2024-01-30T08:54:44;4.80;99.90
20985;DHT22;10651;47.552;7.606;2024-01-30T08:57:13;4.90;99.90
20985;DHT22;10651;47.552;7.606;2024-01-30T08:59:41;4.90;99.90
20985;DHT22;10651;47.552;7.606;2024-01-30T09:02:09;4.90;99.90
20985;DHT22;10651;47.552;7.606;2024-01-30T09:04:41;4.90;99.90
20985;DHT22;10651;47.552;7.606;2024-01-30T09:07:08;5.00;99.90
20985;DHT22;10651;47.552;7.606;2024-01-30T09:09:38;5.10;99.90
20985;DHT22;10651;47.552;7.606;2024-01-30T09:12:05;5.10;99.90
20985;DHT22;10651;47.552;7.606;2024-01-30T09:14:38;5.20;99.90
20985;DHT22;10651;47.552;7.606;2024-01-30T09:17:04;5.40;99.90
20985;DHT22;10651;47.552;7.606;2024-01-30T09:19:33;5.60;99.90
20985;DHT22;10651;47.552;7.606;2024-01-30T09:21:59;5.70;99.90
20985;DHT22;10651;47.552;7.606;2024-01-30T09:24:26;5.70;99.90
20985;DHT22;10651;47.552;7.606;2024-01-30T09:26:52;6.00;99.90
20985;DHT22;10651;47.552;7.606;2024-01-30T09:29:37;6.20;99.90
20985;DHT22;10651;47.552;7.606;2024-01-30T09:32:50;6.30;99.90
20985;DHT22;10651;47.552;7.606;2024-01-30T09:35:39;6.40;99.90
20985;DHT22;10651;47.552;7.606;2024-01-30T09:38:05;6.30;99.90
20985;DHT22;10651;47.552;7.606;2024-01-30T09:40:31;6.40;99.90
20985;DHT22;10651;47.552;7.606;2024-01-30T09:45:26;6.40;99.90
20985;DHT22;10651;47.552;7.606;2024-01-30T09:47:52;6.40;99.90
20985;DHT22;10651;47.552;7.606;2024-01-30T09:50:19;6.40;99.90
20985;DHT22;10651;47.552;7.606;2024-01-30T09:52:46;6.30;99.90
20985;DHT22;10651;47.552;7.606;2024-01-30T09:55:12;6.50;99.90
20985;DHT22;10651;47.552;7.606;2024-01-30T09:57:39;6.50;99.90
20985;DHT22;10651;47.552;7.606;2024-01-30T10:00:05;6.90;99.90
20985;DHT22;10651;47.552;7.606;2024-01-30T10:02:35;7.10;99.90
20985;DHT22;10651;47.552;7.606;2024-01-30T10:05:01;7.50;99.90
20985;DHT22;10651;47.552;7.606;2024-01-30T10:07:27;7.90;99.90
20985;DHT22;10651;47.552;7.606;2024-01-30T10:09:57;8.10;99.90
20985;DHT22;10651;47.552;7.606;2024-01-30T10:12:25;8.40;99.90
20985;DHT22;10651;47.552;7.606;2024-01-30T10:14:51;8.60;99.90
20985;DHT22;10651;47.552;7.606;2024-01-30T10:17:16;8.60;99.90
20985;DHT22;10651;47.552;7.606;2024-01-30T10:19:42;9.40;99.90
20985;DHT22;10651;47.552;7.606;2024-01-30T10:22:09;9.70;99.90
20985;DHT22;10651;47.552;7.606;2024-01-30T10:24:35;10.20;99.90
20985;DHT22;10651;47.552;7.606;2024-01-30T10:27:01;9.80;99.90
20985;DHT22;10651;47.552;7.606;2024-01-30T10:29:27;9.70;99.90
20985;DHT22;10651;47.552;7.606;2024-01-30T10:32:04;9.50;99.90
20985;DHT22;10651;47.552;7.606;2024-01-30T10:34:31;10.60;99.90
20985;DHT22;10651;47.552;7.606;2024-01-30T10:37:16;12.10;99.90
20985;DHT22;10651;47.552;7.606;2024-01-30T10:39:44;11.10;99.90
20985;DHT22;10651;47.552;7.606;2024-01-30T10:42:16;10.10;99.90
20985;DHT22;10651;47.552;7.606;2024-01-30T10:47:38;9.40;99.90
20985;DHT22;10651;47.552;7.606;2024-01-30T10:50:05;11.20;99.90
20985;DHT22;10651;47.552;7.606;2024-01-30T10:52:32;15.20;99.90
20985;DHT22;10651;47.552;7.606;2024-01-30T10:54:58;16.90;99.90
20985;DHT22;10651;47.552;7.606;2024-01-30T10:57:25;14.70;99.90
20985;DHT22;10651;47.552;7.606;2024-01-30T10:59:53;16.70;99.90
20985;DHT22;10651;47.552;7.606;2024-01-30T11:02:20;18.10;99.90
20985;DHT22;10651;47.552;7.606;2024-01-30T11:04:47;19.30;99.90
20985;DHT22;10651;47.552;7.606;2024-01-30T11:07:17;20.10;99.90
20985;DHT22;10651;47.552;7.606;2024-01-30T11:12:29;22.80;99.90
20985;DHT22;10651;47.552;7.606;2024-01-30T11:15:14;22.90;99.90
20985;DHT22;10651;47.552;7.606;2024-01-30T11:20:18;23.30;99.90
20985;DHT22;10651;47.552;7.606;2024-01-30T11:22:45;20.50;99.90
20985;DHT22;10651;47.552;7.606;2024-01-30T11:25:16;21.20;99.90
20985;DHT22;10651;47.552;7.606;2024-01-30T11:27:43;19.30;99.90
20985;DHT22;10651;47.552;7.606;2024-01-30T11:30:09;17.60;99.90
20985;DHT22;10651;47.552;7.606;2024-01-30T11:32:35;16.70;99.90
20985;DHT22;10651;47.552;7.606;2024-01-30T11:35:04;18.10;99.90
20985;DHT22;10651;47.552;7.606;2024-01-30T11:37:31;20.00;99.90
20985;DHT22;10651;47.552;7.606;2024-01-30T11:39:58;20.50;99.90
20985;DHT22;10651;47.552;7.606;2024-01-30T11:42:24;18.50;99.90
20985;DHT22;10651;47.552;7.606;2024-01-30T11:44:51;16.40;99.90
20985;DHT22;10651;47.552;7.606;2024-01-30T11:47:17;15.20;99.90
20985;DHT22;10651;47.552;7.606;2024-01-30T11:49:43;16.20;99.90
20985;DHT22;10651;47.552;7.606;2024-01-30T11:52:09;15.40;99.90
20985;DHT22;10651;47.552;7.606;2024-01-30T11:54:35;14.50;99.90
20985;DHT22;10651;47.552;7.606;2024-01-30T11:57:01;14.10;99.90
20985;DHT22;10651;47.552;7.606;2024-01-30T11:59:27;14.40;99.90
20985;DHT22;10651;47.552;7.606;2024-01-30T12:01:52;14.80;99.90
20985;DHT22;10651;47.552;7.606;2024-01-30T12:04:18;17.20;99.90
20985;DHT22;10651;47.552;7.606;2024-01-30T12:06:44;19.40;99.90
20985;DHT22;10651;47.552;7.606;2024-01-30T12:09:10;18.80;99.90
20985;DHT22;10651;47.552;7.606;2024-01-30T12:11:47;20.50;99.90
20985;DHT22;10651;47.552;7.606;2024-01-30T12:14:14;19.90;99.90
20985;DHT22;10651;47.552;7.606;2024-01-30T12:16:40;18.30;99.90
20985;DHT22;10651;47.552;7.606;2024-01-30T12:19:07;17.20;99.90
20985;DHT22;10651;47.552;7.606;2024-01-30T12:21:33;16.00;99.90
20985;DHT22;10651;47.552;7.606;2024-01-30T12:24:00;14.70;99.90
20985;DHT22;10651;47.552;7.606;2024-01-30T12:26:26;13.90;99.90
20985;DHT22;10651;47.552;7.606;2024-01-30T12:28:55;13.40;99.90
20985;DHT22;10651;47.552;7.606;2024-01-30T12:31:28;13.00;99.90
20985;DHT22;10651;47.552;7.606;2024-01-30T12:33:54;12.90;99.90
20985;DHT22;10651;47.552;7.606;2024-01-30T12:36:21;12.90;99.90
20985;DHT22;10651;47.552;7.606;2024-01-30T12:38:47;13.10;99.90
20985;DHT22;10651;47.552;7.606;2024-01-30T12:41:13;13.10;99.90
20985;DHT22;10651;47.552;7.606;2024-01-30T12:43:39;12.90;99.90
20985;DHT22;10651;47.552;7.606;2024-01-30T12:46:05;12.70;99.90
20985;DHT22;10651;47.552;7.606;2024-01-30T12:48:31;12.50;99.90
20985;DHT22;10651;47.552;7.606;2024-01-30T12:50:57;12.60;99.90
20985;DHT22;10651;47.552;7.606;2024-01-30T12:53:23;13.30;99.90
20985;DHT22;10651;47.552;7.606;2024-01-30T12:55:49;14.10;99.90
20985;DHT22;10651;47.552;7.606;2024-01-30T12:58:15;14.30;99.90
20985;DHT22;10651;47.552;7.606;2024-01-30T13:00:41;14.10;99.90
20985;DHT22;10651;47.552;7.606;2024-01-30T13:03:10;15.20;99.90
20985;DHT22;10651;47.552;7.606;2024-01-30T13:05:37;16.50;99.90
20985;DHT22;10651;47.552;7.606;2024-01-30T13:08:02;16.20;99.90
20985;DHT22;10651;47.552;7.606;2024-01-30T13:10:28;16.90;99.90
20985;DHT22;10651;47.552;7.606;2024-01-30T13:12:54;16.70;99.90
20985;DHT22;10651;47.552;7.606;2024-01-30T13:15:20;16.80;99.90
20985;DHT22;10651;47.552;7.606;2024-01-30T13:17:45;18.10;99.90
20985;DHT22;10651;47.552;7.606;2024-01-30T13:20:14;18.30;99.90
20985;DHT22;10651;47.552;7.606;2024-01-30T13:22:44;18.10;99.90
20985;DHT22;10651;47.552;7.606;2024-01-30T13:25:10;18.60;99.90
20985;DHT22;10651;47.552;7.606;2024-01-30T13:27:37;18.90;99.90
20985;DHT22;10651;47.552;7.606;2024-01-30T13:30:03;18.60;99.90
20985;DHT22;10651;47.552;7.606;2024-01-30T13:32:29;17.50;99.90
20985;DHT22;10651;47.552;7.606;2024-01-30T13:34:55;16.40;99.90
20985;DHT22;10651;47.552;7.606;2024-01-30T13:37:21;15.70;99.90
20985;DHT22;10651;47.552;7.606;2024-01-30T13:39:47;15.00;99.90
20985;DHT22;10651;47.552;7.606;2024-01-30T13:42:13;14.60;99.90
20985;DHT22;10651;47.552;7.606;2024-01-30T13:44:38;14.40;99.90
20985;DHT22;10651;47.552;7.606;2024-01-30T13:47:04;14.30;99.90
20985;DHT22;10651;47.552;7.606;2024-01-30T13:49:30;14.40;99.90
20985;DHT22;10651;47.552;7.606;2024-01-30T13:51:56;14.50;99.90
20985;DHT22;10651;47.552;7.606;2024-01-30T13:54:21;14.10;99.90
20985;DHT22;10651;47.552;7.606;2024-01-30T13:56:47;14.10;99.90
20985;DHT22;10651;47.552;7.606;2024-01-30T13:59:13;13.80;99.90
20985;DHT22;10651;47.552;7.606;2024-01-30T14:01:39;13.70;99.90
20985;DHT22;10651;47.552;7.606;2024-01-30T14:04:04;13.60;99.90
20985;DHT22;10651;47.552;7.606;2024-01-30T14:06:30;13.80;99.90
20985;DHT22;10651;47.552;7.606;2024-01-30T14:08:56;13.50;99.90
20985;DHT22;10651;47.552;7.606;2024-01-30T14:11:22;13.40;99.90
20985;DHT22;10651;47.552;7.606;2024-01-30T14:13:47;13.20;99.90
20985;DHT22;10651;47.552;7.606;2024-01-30T14:16:13;13.10;99.90
20985;DHT22;10651;47.552;7.606;2024-01-30T14:18:39;13.10;99.90
20985;DHT22;10651;47.552;7.606;2024-01-30T14:21:06;13.10;99.90
20985;DHT22;10651;47.552;7.606;2024-01-30T14:23:33;13.00;99.90
20985;DHT22;10651;47.552;7.606;2024-01-30T14:25:59;12.80;99.90
20985;DHT22;10651;47.552;7.606;2024-01-30T14:28:25;12.80;99.90
20985;DHT22;10651;47.552;7.606;2024-01-30T14:30:52;12.90;99.90
20985;DHT22;10651;47.552;7.606;2024-01-30T14:33:18;12.70;99.90
20985;DHT22;10651;47.552;7.606;2024-01-30T14:35:43;12.70;99.90
20985;DHT22;10651;47.552;7.606;2024-01-30T14:38:09;12.80;99.90
20985;DHT22;10651;47.552;7.606;2024-01-30T14:40:35;12.90;99.90
20985;DHT22;10651;47.552;7.606;2024-01-30T14:43:01;12.70;99.90
20985;DHT22;10651;47.552;7.606;2024-01-30T14:45:27;12.70;99.90
20985;DHT22;10651;47.552;7.606;2024-01-30T14:47:53;12.70;99.90
20985;DHT22;10651;47.552;7.606;2024-01-30T14:50:21;12.70;99.90
20985;DHT22;10651;47.552;7.606;2024-01-30T14:52:47;12.60;99.90
20985;DHT22;10651;47.552;7.606;2024-01-30T14:55:12;12.50;99.90
20985;DHT22;10651;47.552;7.606;2024-01-30T14:57:38;12.40;99.90
20985;DHT22;10651;47.552;7.606;2024-01-30T15:00:05;12.20;99.90
20985;DHT22;10651;47.552;7.606;2024-01-30T15:02:30;12.10;99.90
20985;DHT22;10651;47.552;7.606;2024-01-30T15:04:56;12.10;99.90
20985;DHT22;10651;47.552;7.606;2024-01-30T15:07:22;12.20;99.90
20985;DHT22;10651;47.552;7.606;2024-01-30T15:09:47;12.10;99.90
20985;DHT22;10651;47.552;7.606;2024-01-30T15:12:13;12.10;99.90
20985;DHT22;10651;47.552;7.606;2024-01-30T15:14:39;12.10;99.90
20985;DHT22;10651;47.552;7.606;2024-01-30T15:17:04;11.90;99.90
20985;DHT22;10651;47.552;7.606;2024-01-30T15:19:30;11.90;99.90
20985;DHT22;10651;47.552;7.606;2024-01-30T15:21:56;11.80;99.90
20985;DHT22;10651;47.552;7.606;2024-01-30T15:24:21;11.70;99.90
20985;DHT22;10651;47.552;7.606;2024-01-30T15:26:50;11.60;99.90
20985;DHT22;10651;47.552;7.606;2024-01-30T15:29:16;11.60;99.90
20985;DHT22;10651;47.552;7.606;2024-01-30T15:31:42;11.60;99.90
20985;DHT22;10651;47.552;7.606;2024-01-30T15:34:08;11.50;99.90
20985;DHT22;10651;47.552;7.606;2024-01-30T15:36:33;11.50;99.90
20985;DHT22;10651;47.552;7.606;2024-01-30T15:38:59;11.40;99.90
20985;DHT22;10651;47.552;7.606;2024-01-30T15:41:25;11.30;99.90
20985;DHT22;10651;47.552;7.606;2024-01-30T15:43:50;11.30;99.90
20985;DHT22;10651;47.552;7.606;2024-01-30T15:46:17;11.20;99.90
20985;DHT22;10651;47.552;7.606;2024-01-30T15:48:42;11.20;99.90
20985;DHT22;10651;47.552;7.606;2024-01-30T15:51:08;11.20;99.90
20985;DHT22;10651;47.552;7.606;2024-01-30T15:53:34;11.20;99.90
20985;DHT22;10651;47.552;7.606;2024-01-30T15:56:00;11.30;99.90
20985;DHT22;10651;47.552;7.606;2024-01-30T15:58:26;11.30;99.90
20985;DHT22;10651;47.552;7.606;2024-01-30T16:00:51;11.20;99.90
20985;DHT22;10651;47.552;7.606;2024-01-30T16:03:17;11.20;99.90
20985;DHT22;10651;47.552;7.606;2024-01-30T16:05:43;11.20;99.90
20985;DHT22;10651;47.552;7.606;2024-01-30T16:08:11;11.20;99.90
20985;DHT22;10651;47.552;7.606;2024-01-30T16:10:37;11.20;99.90
20985;DHT22;10651;47.552;7.606;2024-01-30T16:13:03;11.20;99.90
20985;DHT22;10651;47.552;7.606;2024-01-30T16:15:31;11.20;99.90
20985;DHT22;10651;47.552;7.606;2024-01-30T16:17:57;11.10;99.90
20985;DHT22;10651;47.552;7.606;2024-01-30T16:20:23;11.10;99.90
20985;DHT22;10651;47.552;7.606;2024-01-30T16:22:48;11.00;99.90
20985;DHT22;10651;47.552;7.606;2024-01-30T16:25:18;11.00;99.90
20985;DHT22;10651;47.552;7.606;2024-01-30T16:27:44;10.90;99.90
20985;DHT22;10651;47.552;7.606;2024-01-30T16:30:10;11.00;99.90
20985;DHT22;10651;47.552;7.606;2024-01-30T16:32:36;10.90;99.90
20985;DHT22;10651;47.552;7.606;2024-01-30T16:35:02;10.90;99.90
20985;DHT22;10651;47.552;7.606;2024-01-30T16:37:28;10.90;99.90
20985;DHT22;10651;47.552;7.606;2024-01-30T16:39:53;10.90;99.90
20985;DHT22;10651;47.552;7.606;2024-01-30T16:42:19;10.80;99.90
20985;DHT22;10651;47.552;7.606;2024-01-30T16:44:45;10.80;99.90
20985;DHT22;10651;47.552;7.606;2024-01-30T16:47:11;10.70;99.90
20985;DHT22;10651;47.552;7.606;2024-01-30T16:49:36;10.70;99.90
20985;DHT22;10651;47.552;7.606;2024-01-30T16:52:02;10.70;99.90
20985;DHT22;10651;47.552;7.606;2024-01-30T16:54:30;10.70;99.90
20985;DHT22;10651;47.552;7.606;2024-01-30T16:56:55;10.70;99.90
20985;DHT22;10651;47.552;7.606;2024-01-30T16:59:21;10.60;99.90
20985;DHT22;10651;47.552;7.606;2024-01-30T17:01:47;10.60;99.90
20985;DHT22;10651;47.552;7.606;2024-01-30T17:04:18;10.60;99.90
20985;DHT22;10651;47.552;7.606;2024-01-30T17:06:47;10.60;99.90
20985;DHT22;10651;47.552;7.606;2024-01-30T17:09:13;10.60;99.90
20985;DHT22;10651;47.552;7.606;2024-01-30T17:11:40;10.60;99.90
20985;DHT22;10651;47.552;7.606;2024-01-30T17:14:06;10.50;99.90
20985;DHT22;10651;47.552;7.606;2024-01-30T17:16:32;10.60;99.90
20985;DHT22;10651;47.552;7.606;2024-01-30T17:18:58;10.50;99.90
20985;DHT22;10651;47.552;7.606;2024-01-30T17:21:24;10.50;99.90
20985;DHT22;10651;47.552;7.606;2024-01-30T17:23:50;10.40;99.90
20985;DHT22;10651;47.552;7.606;2024-01-30T17:26:16;10.40;99.90
20985;DHT22;10651;47.552;7.606;2024-01-30T17:28:41;10.40;99.90
20985;DHT22;10651;47.552;7.606;2024-01-30T17:31:07;10.40;99.90
20985;DHT22;10651;47.552;7.606;2024-01-30T17:33:33;10.40;99.90
20985;DHT22;10651;47.552;7.606;2024-01-30T17:35:59;10.30;99.90
20985;DHT22;10651;47.552;7.606;2024-01-30T17:38:25;10.30;99.90
20985;DHT22;10651;47.552;7.606;2024-01-30T17:40:50;10.30;99.90
20985;DHT22;10651;47.552;7.606;2024-01-30T17:43:17;10.10;99.90
20985;DHT22;10651;47.552;7.606;2024-01-30T17:45:43;10.20;99.90
20985;DHT22;10651;47.552;7.606;2024-01-30T17:50:44;10.40;99.90
20985;DHT22;10651;47.552;7.606;2024-01-30T17:53:12;10.40;99.90
20985;DHT22;10651;47.552;7.606;2024-01-30T17:55:40;10.40;99.90
20985;DHT22;10651;47.552;7.606;2024-01-30T17:58:09;10.40;99.90
20985;DHT22;10651;47.552;7.606;2024-01-30T18:00:38;10.40;99.90
20985;DHT22;10651;47.552;7.606;2024-01-30T18:03:04;10.40;99.90
20985;DHT22;10651;47.552;7.606;2024-01-30T18:05:29;10.30;99.90
20985;DHT22;10651;47.552;7.606;2024-01-30T18:07:55;10.30;99.90
20985;DHT22;10651;47.552;7.606;2024-01-30T18:10:21;10.20;99.90
20985;DHT22;10651;47.552;7.606;2024-01-30T18:12:47;10.20;99.90
20985;DHT22;10651;47.552;7.606;2024-01-30T18:18:43;10.10;99.90
20985;DHT22;10651;47.552;7.606;2024-01-30T18:21:11;10.10;99.90
20985;DHT22;10651;47.552;7.606;2024-01-30T18:23:37;10.00;99.90
20985;DHT22;10651;47.552;7.606;2024-01-30T18:26:03;10.00;99.90
20985;DHT22;10651;47.552;7.606;2024-01-30T18:28:29;10.00;99.90
20985;DHT22;10651;47.552;7.606;2024-01-30T18:30:55;9.90;99.90
20985;DHT22;10651;47.552;7.606;2024-01-30T18:33:21;9.90;99.90
20985;DHT22;10651;47.552;7.606;2024-01-30T18:35:53;9.70;99.90
20985;DHT22;10651;47.552;7.606;2024-01-30T18:38:27;9.70;99.90
20985;DHT22;10651;47.552;7.606;2024-01-30T18:41:23;9.70;99.90
20985;DHT22;10651;47.552;7.606;2024-01-30T18:44:01;9.60;99.90
20985;DHT22;10651;47.552;7.606;2024-01-30T18:46:51;9.60;99.90
20985;DHT22;10651;47.552;7.606;2024-01-30T18:49:17;9.50;99.90
20985;DHT22;10651;47.552;7.606;2024-01-30T18:51:43;9.50;99.90
20985;DHT22;10651;47.552;7.606;2024-01-30T18:54:09;9.40;99.90
20985;DHT22;10651;47.552;7.606;2024-01-30T18:56:34;9.40;99.90
20985;DHT22;10651;47.552;7.606;2024-01-30T18:59:00;9.40;99.90
20985;DHT22;10651;47.552;7.606;2024-01-30T19:01:26;9.40;99.90
20985;DHT22;10651;47.552;7.606;2024-01-30T19:03:52;9.40;99.90
20985;DHT22;10651;47.552;7.606;2024-01-30T19:06:20;9.30;99.90
20985;DHT22;10651;47.552;7.606;2024-01-30T19:08:46;9.30;99.90
20985;DHT22;10651;47.552;7.606;2024-01-30T19:11:20;9.30;99.90
20985;DHT22;10651;47.552;7.606;2024-01-30T19:13:46;9.40;99.90
20985;DHT22;10651;47.552;7.606;2024-01-30T19:16:12;9.40;99.90
20985;DHT22;10651;47.552;7.606;2024-01-30T19:18:38;9.40;99.90
20985;DHT22;10651;47.552;7.606;2024-01-30T19:21:04;9.40;99.90
20985;DHT22;10651;47.552;7.606;2024-01-30T19:23:32;9.40;99.90
20985;DHT22;10651;47.552;7.606;2024-01-30T19:25:58;9.30;99.90
20985;DHT22;10651;47.552;7.606;2024-01-30T19:28:23;9.30;99.90
20985;DHT22;10651;47.552;7.606;2024-01-30T19:30:49;9.30;99.90
20985;DHT22;10651;47.552;7.606;2024-01-30T19:33:16;9.30;99.90
20985;DHT22;10651;47.552;7.606;2024-01-30T19:35:44;9.30;99.90
20985;DHT22;10651;47.552;7.606;2024-01-30T19:38:10;9.30;99.90
20985;DHT22;10651;47.552;7.606;2024-01-30T19:40:38;9.30;99.90
20985;DHT22;10651;47.552;7.606;2024-01-30T19:43:07;9.20;99.90
20985;DHT22;10651;47.552;7.606;2024-01-30T19:45:36;9.20;99.90
20985;DHT22;10651;47.552;7.606;2024-01-30T19:48:04;9.20;99.90
20985;DHT22;10651;47.552;7.606;2024-01-30T19:50:33;9.20;99.90
20985;DHT22;10651;47.552;7.606;2024-01-30T19:52:59;9.20;99.90
20985;DHT22;10651;47.552;7.606;2024-01-30T19:55:25;9.20;99.90
20985;DHT22;10651;47.552;7.606;2024-01-30T19:57:57;9.20;99.90
20985;DHT22;10651;47.552;7.606;2024-01-30T20:00:26;9.20;99.90
20985;DHT22;10651;47.552;7.606;2024-01-30T20:02:51;9.20;99.90
20985;DHT22;10651;47.552;7.606;2024-01-30T20:05:17;9.30;99.90
20985;DHT22;10651;47.552;7.606;2024-01-30T20:07:43;9.30;99.90
20985;DHT22;10651;47.552;7.606;2024-01-30T20:10:09;9.30;99.90
20985;DHT22;10651;47.552;7.606;2024-01-30T20:12:35;9.30;99.90
20985;DHT22;10651;47.552;7.606;2024-01-30T20:15:04;9.20;99.90
20985;DHT22;10651;47.552;7.606;2024-01-30T20:17:30;9.20;99.90
20985;DHT22;10651;47.552;7.606;2024-01-30T20:19:57;9.20;99.90
20985;DHT22;10651;47.552;7.606;2024-01-30T20:22:23;9.20;99.90
20985;DHT22;10651;47.552;7.606;2024-01-30T20:24:49;9.20;99.90
20985;DHT22;10651;47.552;7.606;2024-01-30T20:27:14;9.20;99.90
20985;DHT22;10651;47.552;7.606;2024-01-30T20:29:40;9.20;99.90
20985;DHT22;10651;47.552;7.606;2024-01-30T20:32:08;9.20;99.90
20985;DHT22;10651;47.552;7.606;2024-01-30T20:34:34;9.20;99.90
20985;DHT22;10651;47.552;7.606;2024-01-30T20:37:00;9.10;99.90
20985;DHT22;10651;47.552;7.606;2024-01-30T20:39:25;9.10;99.90
20985;DHT22;10651;47.552;7.606;2024-01-30T20:41:54;9.10;99.90
20985;DHT22;10651;47.552;7.606;2024-01-30T20:44:20;9.10;99.90
20985;DHT22;10651;47.552;7.606;2024-01-30T20:46:49;9.10;99.90
20985;DHT22;10651;47.552;7.606;2024-01-30T20:49:20;9.00;99.90
20985;DHT22;10651;47.552;7.606;2024-01-30T20:52:06;9.10;99.90
20985;DHT22;10651;47.552;7.606;2024-01-30T20:54:39;9.00;99.90
20985;DHT22;10651;47.552;7.606;2024-01-30T20:57:05;9.00;99.90
20985;DHT22;10651;47.552;7.606;2024-01-30T20:59:34;9.00;99.90
20985;DHT22;10651;47.552;7.606;2024-01-30T21:02:08;9.00;99.90
20985;DHT22;10651;47.552;7.606;2024-01-30T21:04:34;9.00;99.90
20985;DHT22;10651;47.552;7.606;2024-01-30T21:07:02;8.90;99.90
20985;DHT22;10651;47.552;7.606;2024-01-30T21:09:28;8.90;99.90
20985;DHT22;10651;47.552;7.606;2024-01-30T21:11:59;8.90;99.90
20985;DHT22;10651;47.552;7.606;2024-01-30T21:18:08;8.90;99.90
20985;DHT22;10651;47.552;7.606;2024-01-30T21:21:09;8.90;99.90
20985;DHT22;10651;47.552;7.606;2024-01-30T21:24:53;8.90;99.90
20985;DHT22;10651;47.552;7.606;2024-01-30T21:27:48;8.90;99.90
20985;DHT22;10651;47.552;7.606;2024-01-30T21:30:17;8.80;99.90
20985;DHT22;10651;47.552;7.606;2024-01-30T21:32:45;8.80;99.90
20985;DHT22;10651;47.552;7.606;2024-01-30T21:35:16;8.80;99.90
20985;DHT22;10651;47.552;7.606;2024-01-30T21:37:45;8.80;99.90
20985;DHT22;10651;47.552;7.606;2024-01-30T21:40:11;8.70;99.90
20985;DHT22;10651;47.552;7.606;2024-01-30T21:42:46;8.70;99.90
20985;DHT22;10651;47.552;7.606;2024-01-30T21:45:17;8.70;99.90
20985;DHT22;10651;47.552;7.606;2024-01-30T21:47:43;8.60;99.90
20985;DHT22;10651;47.552;7.606;2024-01-30T21:50:36;8.60;99.90
20985;DHT22;10651;47.552;7.606;2024-01-30T21:53:18;8.50;99.90
20985;DHT22;10651;47.552;7.606;2024-01-30T21:56:04;8.50;99.90
20985;DHT22;10651;47.552;7.606;2024-01-30T21:58:33;8.40;99.90
20985;DHT22;10651;47.552;7.606;2024-01-30T22:00:59;8.40;99.90
20985;DHT22;10651;47.552;7.606;2024-01-30T22:03:24;8.40;99.90
20985;DHT22;10651;47.552;7.606;2024-01-30T22:05:50;8.40;99.90
20985;DHT22;10651;47.552;7.606;2024-01-30T22:08:16;8.40;99.90
20985;DHT22;10651;47.552;7.606;2024-01-30T22:10:42;8.30;99.90
20985;DHT22;10651;47.552;7.606;2024-01-30T22:13:17;8.30;99.90
20985;DHT22;10651;47.552;7.606;2024-01-30T22:15:55;8.30;99.90
20985;DHT22;10651;47.552;7.606;2024-01-30T22:18:24;8.30;99.90
20985;DHT22;10651;47.552;7.606;2024-01-30T22:20:50;8.20;99.90
20985;DHT22;10651;47.552;7.606;2024-01-30T22:23:19;8.20;99.90
20985;DHT22;10651;47.552;7.606;2024-01-30T22:25:44;8.20;99.90
20985;DHT22;10651;47.552;7.606;2024-01-30T22:28:10;8.30;99.90
20985;DHT22;10651;47.552;7.606;2024-01-30T22:30:39;8.20;99.90
20985;DHT22;10651;47.552;7.606;2024-01-30T22:33:08;8.20;99.90
20985;DHT22;10651;47.552;7.606;2024-01-30T22:35:35;8.30;99.90
20985;DHT22;10651;47.552;7.606;2024-01-30T22:38:01;8.30;99.90
20985;DHT22;10651;47.552;7.606;2024-01-30T22:40:32;8.30;99.90
20985;DHT22;10651;47.552;7.606;2024-01-30T22:42:58;8.40;99.90
20985;DHT22;10651;47.552;7.606;2024-01-30T22:45:24;8.40;99.90
20985;DHT22;10651;47.552;7.606;2024-01-30T22:47:52;8.40;99.90
20985;DHT22;10651;47.552;7.606;2024-01-30T22:50:29;8.40;99.90
20985;DHT22;10651;47.552;7.606;2024-01-30T22:52:54;8.40;99.90
20985;DHT22;10651;47.552;7.606;2024-01-30T22:55:24;8.40;99.90
20985;DHT22;10651;47.552;7.606;2024-01-30T22:58:00;8.40;99.90
20985;DHT22;10651;47.552;7.606;2024-01-30T23:00:26;8.40;99.90
20985;DHT22;10651;47.552;7.606;2024-01-30T23:02:54;8.30;99.90
20985;DHT22;10651;47.552;7.606;2024-01-30T23:05:23;8.30;99.90
20985;DHT22;10651;47.552;7.606;2024-01-30T23:07:50;8.30;99.90
20985;DHT22;10651;47.552;7.606;2024-01-30T23:10:18;8.30;99.90
20985;DHT22;10651;47.552;7.606;2024-01-30T23:12:47;8.20;99.90